createdAt,value
2022-12-19T00:01:24.336Z,8.8
2022-12-19T00:03:28.189Z,10.2
2022-12-19T00:05:31.839Z,9.8
2022-12-19T00:09:39.424Z,8.2
2022-12-19T00:13:50.123Z,11.1
2022-12-19T00:15:54.042Z,7.9
2022-12-19T00:20:01.467Z,9.7
2022-12-19T00:22:09.614Z,11.1
2022-12-19T00:26:15.995Z,6.1
2022-12-19T00:28:19.772Z,6
2022-12-19T00:31:27.183Z,7.5
2022-12-19T00:33:30.893Z,7.8
2022-12-19T00:35:34.664Z,9.3
2022-12-19T00:37:41.470Z,4.3
2022-12-19T00:39:45.401Z,8.8
2022-12-19T00:41:49.209Z,5.9
2022-12-19T00:43:53.031Z,7.1
2022-12-19T00:45:56.954Z,9.8
2022-12-19T00:48:00.665Z,11.1
2022-12-19T00:50:04.445Z,11
2022-12-19T00:52:08.242Z,8.2
2022-12-19T00:54:15.186Z,9.8
2022-12-19T00:56:18.988Z,13.1
2022-12-19T00:58:22.783Z,8.7
2022-12-19T01:00:26.501Z,11.5
2022-12-19T01:02:30.402Z,9.1
2022-12-19T01:04:38.366Z,9
2022-12-19T01:06:37.817Z,11.3
2022-12-19T01:08:44.758Z,5.7
2022-12-19T01:10:48.584Z,6.9
2022-12-19T01:12:52.384Z,8.6
2022-12-19T01:15:03.924Z,12.3
2022-12-19T01:17:00.011Z,6.4
2022-12-19T01:19:03.811Z,8.1
2022-12-19T01:21:07.601Z,10.5
2022-12-19T01:23:14.553Z,10.6
2022-12-19T01:25:18.330Z,11.5
2022-12-19T01:27:22.130Z,5.7
2022-12-19T01:29:52.178Z,12.9
2022-12-19T01:31:50.364Z,9.1
2022-12-19T01:33:54.642Z,6.8
2022-12-19T01:36:01.098Z,7.5
2022-12-19T01:38:08.285Z,14.8
2022-12-19T01:46:20.121Z,8.4
2022-12-19T01:48:23.875Z,9.6
2022-12-19T01:50:30.826Z,12.9
2022-12-19T01:52:34.517Z,12.3
2022-12-19T01:54:38.212Z,6.1
2022-12-19T01:56:41.976Z,8.9
2022-12-19T01:58:45.789Z,9.8
2022-12-19T02:00:49.740Z,13
2022-12-19T02:05:00.346Z,11.3
2022-12-19T02:07:14.967Z,9.6
2022-12-19T02:09:08.021Z,11.4
2022-12-19T02:11:11.803Z,8.8
2022-12-19T02:13:15.624Z,9.6
2022-12-19T02:15:19.321Z,11.7
2022-12-19T02:19:29.973Z,12.2
2022-12-19T02:23:37.644Z,10.5
2022-12-19T02:24:41.100Z,10.3
2022-12-19T02:26:44.915Z,15.5
2022-12-19T02:28:48.753Z,12.5
2022-12-19T02:30:52.587Z,15.5
2022-12-19T02:32:59.529Z,16.5
2022-12-19T02:35:03.358Z,12.4
2022-12-19T02:37:07.188Z,13.2
2022-12-19T02:39:11.049Z,15.3
2022-12-19T02:41:16.427Z,17.3
2022-12-19T02:43:20.217Z,12
2022-12-19T02:45:28.928Z,15.4
2022-12-19T02:49:34.849Z,19.6
2022-12-19T02:51:38.687Z,18.6
2022-12-19T02:53:42.401Z,19.2
2022-12-19T02:57:50.013Z,21.3
2022-12-19T02:59:53.829Z,19
2022-12-19T03:02:00.980Z,22.4
2022-12-19T03:04:04.632Z,18.8
2022-12-19T03:06:08.480Z,21.3
2022-12-19T03:08:12.216Z,25.8
2022-12-19T03:10:15.980Z,23.8
2022-12-19T03:12:19.819Z,24.9
2022-12-19T03:14:23.667Z,18.6
2022-12-19T03:16:30.700Z,22.8
2022-12-19T03:18:34.434Z,18.8
2022-12-19T03:20:38.274Z,17.7
2022-12-19T03:21:41.780Z,19.1
2022-12-19T03:23:45.613Z,25
2022-12-19T03:25:49.464Z,25.1
2022-12-19T03:27:53.344Z,22.2
2022-12-19T03:30:00.240Z,24.2
2022-12-19T03:32:04.111Z,26.2
2022-12-19T03:34:07.932Z,26.4
2022-12-19T03:36:11.792Z,22.8
2022-12-19T03:38:15.583Z,23.7
2022-12-19T03:42:23.284Z,23.8
2022-12-19T03:44:30.173Z,30.7
2022-12-19T03:46:33.941Z,26.4
2022-12-19T03:48:37.835Z,26.3
2022-12-19T03:50:41.712Z,27
2022-12-19T03:52:45.575Z,26.3
2022-12-19T03:54:49.327Z,26.9
2022-12-19T03:56:53.207Z,34.3
2022-12-19T03:59:00.148Z,40
2022-12-19T04:01:03.954Z,35.6
2022-12-19T04:03:07.655Z,38.9
2022-12-19T04:07:15.387Z,37.6
2022-12-19T04:09:22.289Z,40.7
2022-12-19T04:11:23.115Z,41.4
2022-12-19T04:15:33.937Z,40
2022-12-19T04:17:37.784Z,44
2022-12-19T04:18:41.186Z,49.3
2022-12-19T04:20:44.962Z,49.2
2022-12-19T04:22:48.820Z,44
2022-12-19T04:24:52.704Z,53
2022-12-19T04:26:59.727Z,58.4
2022-12-19T04:29:03.494Z,53.8
2022-12-19T04:31:07.313Z,58
2022-12-19T04:33:11.066Z,59.4
2022-12-19T04:35:14.858Z,58.9
2022-12-19T04:37:18.657Z,71.1
2022-12-19T04:39:22.521Z,60.2
2022-12-19T04:41:29.558Z,72.5
2022-12-19T04:43:33.347Z,74.5
2022-12-19T04:45:37.281Z,73.8
2022-12-19T04:47:41.137Z,76.1
2022-12-19T04:49:45.013Z,72.5
2022-12-19T04:51:48.790Z,92.7
2022-12-19T04:53:52.618Z,78.1
2022-12-19T05:02:11.261Z,91.4
2022-12-19T05:08:22.511Z,100.2
2022-12-19T05:10:29.529Z,111.9
2022-12-19T05:12:33.447Z,105.6
2022-12-19T05:14:37.357Z,114.8
2022-12-19T05:17:01.809Z,122.7
2022-12-19T05:19:05.301Z,117.6
2022-12-19T05:21:09.224Z,110.6
2022-12-19T05:23:17.948Z,124.7
2022-12-19T05:25:19.865Z,128.5
2022-12-19T05:31:31.347Z,135.1
2022-12-19T05:33:35.148Z,132.1
2022-12-19T05:35:38.960Z,133.3
2022-12-19T05:37:45.883Z,139.4
2022-12-19T05:39:49.813Z,145.5
2022-12-19T05:41:53.648Z,134.3
2022-12-19T05:43:57.471Z,130.9
2022-12-19T05:46:01.315Z,131.1
2022-12-19T05:48:05.143Z,150.4
2022-12-19T05:50:09.072Z,152
2022-12-19T05:52:15.980Z,176
2022-12-19T05:54:19.763Z,163.1
2022-12-19T05:56:23.582Z,183.8
2022-12-19T05:58:27.423Z,173.5
2022-12-19T06:00:31.254Z,175.6
2022-12-19T06:02:35.435Z,178
2022-12-19T06:04:38.988Z,158.4
2022-12-19T06:06:45.839Z,201
2022-12-19T06:08:49.677Z,196.7
2022-12-19T06:10:53.543Z,202.7
2022-12-19T06:11:57.117Z,205.4
2022-12-19T06:14:01.028Z,201.4
2022-12-19T06:16:04.920Z,210.8
2022-12-19T06:18:08.728Z,221.7
2022-12-19T06:20:15.623Z,229.3
2022-12-19T06:22:19.493Z,233.1
2022-12-19T06:24:23.427Z,227.8
2022-12-19T06:26:27.269Z,225.3
2022-12-19T06:28:31.103Z,222.9
2022-12-19T06:30:34.964Z,235.6
2022-12-19T06:32:38.817Z,234.4
2022-12-19T06:35:03.363Z,227
2022-12-19T06:36:49.529Z,224.3
2022-12-19T06:38:53.419Z,218
2022-12-19T06:43:01.116Z,216.2
2022-12-19T06:47:08.832Z,226.8
2022-12-19T06:57:31.212Z,241.2
2022-12-19T07:03:45.801Z,263.5
2022-12-19T07:05:49.712Z,268.7
2022-12-19T07:07:53.556Z,261.6
2022-12-19T07:08:57.000Z,267.8
2022-12-19T07:11:00.982Z,261.5
2022-12-19T07:13:04.795Z,257.3
2022-12-19T07:15:08.647Z,254.6
2022-12-19T07:17:15.568Z,268.6
2022-12-19T07:19:19.436Z,253.8
2022-12-19T07:21:23.309Z,264.7
2022-12-19T07:23:27.214Z,258.2
2022-12-19T07:25:31.122Z,267.8
2022-12-19T07:27:36.109Z,256.6
2022-12-19T07:29:38.880Z,254.4
2022-12-19T07:31:45.843Z,271.5
2022-12-19T07:33:49.667Z,265
2022-12-19T07:35:53.591Z,258.3
2022-12-19T07:37:57.474Z,265.2
2022-12-19T07:40:01.393Z,260.7
2022-12-19T07:44:09.171Z,2.9
2022-12-19T07:46:16.192Z,4.6
2022-12-19T07:48:19.980Z,2.3
2022-12-19T07:50:23.873Z,4.3
2022-12-19T07:52:27.774Z,2.5
2022-12-19T07:54:31.695Z,3.7
2022-12-19T07:56:35.601Z,4.1
2022-12-19T07:58:39.498Z,4
2022-12-19T08:00:46.489Z,4.6
2022-12-19T08:02:50.455Z,2.4
2022-12-19T08:05:57.711Z,4.7
2022-12-19T08:08:01.633Z,5.8
2022-12-19T08:10:05.562Z,5.5
2022-12-19T08:12:09.476Z,5.4
2022-12-19T08:14:16.395Z,4.1
2022-12-19T08:16:20.404Z,5.1
2022-12-19T08:22:32.112Z,3.7
2022-12-19T08:24:36.047Z,4.7
2022-12-19T08:26:44.551Z,5.6
2022-12-19T08:28:46.930Z,6.7
2022-12-19T08:30:50.993Z,4.5
2022-12-19T08:32:54.800Z,3.9
2022-12-19T08:37:02.696Z,4.4
2022-12-19T08:39:08.209Z,3.7
2022-12-19T08:41:12.124Z,3.5
2022-12-19T08:43:19.080Z,4.5
2022-12-19T08:45:23.012Z,5.2
2022-12-19T08:47:26.969Z,5.3
2022-12-19T08:49:30.889Z,4.1
2022-12-19T08:51:34.864Z,4.3
2022-12-19T08:53:38.809Z,2.9
2022-12-19T08:55:42.732Z,4.9
2022-12-19T08:59:53.651Z,4.6
2022-12-19T09:01:57.720Z,3.8
2022-12-19T09:05:45.211Z,5.3
2022-12-19T09:06:25.958Z,3.5
2022-12-19T09:08:29.839Z,4.2
2022-12-19T09:12:40.781Z,4.9
2022-12-19T09:14:44.754Z,4.1
2022-12-19T09:16:48.743Z,3.5
2022-12-19T09:18:52.693Z,3.2
2022-12-19T09:20:56.614Z,4.2
2022-12-19T09:23:00.587Z,3.9
2022-12-19T09:27:11.525Z,4.8
2022-12-19T09:29:20.950Z,4.8
2022-12-19T09:31:19.480Z,3.2
2022-12-19T09:33:23.467Z,3.4
2022-12-19T09:35:30.433Z,2.7
2022-12-19T09:37:31.327Z,4.5
2022-12-19T09:39:38.280Z,6.5
2022-12-19T09:41:42.250Z,3.7
2022-12-19T09:45:50.224Z,3.8
2022-12-19T09:47:54.155Z,2.7
2022-12-19T09:52:02.047Z,2.5
2022-12-19T09:54:09.040Z,3.8
2022-12-19T09:56:13.021Z,3.9
2022-12-19T09:58:16.972Z,2
2022-12-19T09:59:20.491Z,2.8
2022-12-19T10:01:24.604Z,3.9
2022-12-19T10:03:28.458Z,3.1
2022-12-19T10:06:27.357Z,2
2022-12-19T10:08:05.041Z,4.6
2022-12-19T10:12:00.249Z,3.2
2022-12-19T10:12:43.863Z,3
2022-12-19T10:13:51.255Z,3.2
2022-12-19T10:20:03.178Z,5
2022-12-19T10:22:18.978Z,5.5
2022-12-19T10:24:14.117Z,3.5
2022-12-19T10:26:18.079Z,4.8
2022-12-19T10:28:22.050Z,5.5
2022-12-19T10:30:25.989Z,3.6
2022-12-19T10:32:29.984Z,5.2
2022-12-19T10:34:33.946Z,4.9
2022-12-19T10:37:04.557Z,5.3
2022-12-19T10:38:51.016Z,4.7
2022-12-19T10:40:48.871Z,3.7
2022-12-19T10:42:52.822Z,4
2022-12-19T10:47:00.858Z,3.2
2022-12-19T10:49:04.737Z,4.2
2022-12-19T10:51:11.727Z,4
2022-12-19T10:53:15.718Z,3.7
2022-12-19T10:55:19.689Z,4.9
2022-12-19T10:56:23.179Z,4
2022-12-19T10:58:27.159Z,3.8
2022-12-19T11:00:32.879Z,3.5
2022-12-19T11:02:35.219Z,2.7
2022-12-19T11:04:42.132Z,6.2
2022-12-19T11:06:46.157Z,4.6
2022-12-19T11:08:50.028Z,5.2
2022-12-19T11:12:33.563Z,3.5
2022-12-19T11:19:28.771Z,3.9
2022-12-19T11:23:17.667Z,2.9
2022-12-19T11:29:24.897Z,2.7
2022-12-19T11:29:36.340Z,5.1
2022-12-19T11:31:51.055Z,3.9
2022-12-19T11:33:43.868Z,4.8
2022-12-19T11:35:47.801Z,4.3
2022-12-19T11:37:55.390Z,4.7
2022-12-19T11:39:55.764Z,3.3
2022-12-19T11:41:59.759Z,5.7
2022-12-19T11:44:03.708Z,4
2022-12-19T11:46:07.694Z,2.7
2022-12-19T11:48:14.721Z,5.4
2022-12-19T11:50:18.702Z,4
2022-12-19T11:52:54.239Z,3.4
2022-12-19T11:53:26.179Z,3
2022-12-19T11:55:30.175Z,4.5
2022-12-19T11:57:34.187Z,4
2022-12-19T11:59:38.171Z,3.1
2022-12-19T12:01:45.313Z,4.9
2022-12-19T12:03:49.522Z,3.6
2022-12-19T12:05:53.145Z,4.1
2022-12-19T12:08:47.763Z,3.1
2022-12-19T12:15:30.215Z,4.6
2022-12-19T12:18:39.870Z,2.9
2022-12-19T12:28:47.925Z,4.3
2022-12-19T12:31:07.990Z,3.5
2022-12-19T12:31:09.514Z,3.8
2022-12-19T12:31:43.770Z,10.4
2022-12-19T12:31:52.579Z,4.4
2022-12-19T12:31:58.650Z,3.2
2022-12-19T12:32:06.524Z,6
2022-12-19T12:35:50.039Z,3.4
2022-12-19T12:35:56.478Z,3.7
2022-12-19T12:38:13.580Z,3.8
2022-12-19T12:39:03.030Z,3.6
2022-12-19T12:41:06.992Z,3.7
2022-12-19T12:43:11.025Z,3.5
2022-12-19T12:45:18.053Z,3.1
2022-12-19T12:47:22.035Z,4
2022-12-19T12:49:26.040Z,3.5
2022-12-19T12:51:50.298Z,3.7
2022-12-19T12:53:54.278Z,2.7
2022-12-19T12:55:58.310Z,2.3
2022-12-19T12:58:09.110Z,5.7
2022-12-19T13:02:13.708Z,2.5
2022-12-19T13:04:17.328Z,4.2
2022-12-19T13:06:21.342Z,2.4
2022-12-19T13:08:25.321Z,2.1
2022-12-19T13:12:36.372Z,4.8
2022-12-19T13:14:40.373Z,3.3
2022-12-19T13:16:44.555Z,3.4
2022-12-19T13:18:48.404Z,3.1
2022-12-19T13:20:52.397Z,3.3
2022-12-19T13:22:56.394Z,1.6
2022-12-19T13:25:00.444Z,2.7
2022-12-19T13:27:07.448Z,3.3
2022-12-19T13:29:11.463Z,3.4
2022-12-19T13:31:20.854Z,3.4
2022-12-19T13:39:59.500Z,2.9
2022-12-19T13:41:38.547Z,3.8
2022-12-19T13:43:42.570Z,2.4
2022-12-19T13:45:46.647Z,3
2022-12-19T13:46:50.135Z,4.7
2022-12-19T13:48:54.117Z,4.1
2022-12-19T13:50:58.150Z,3.6
2022-12-19T13:53:02.159Z,4.3
2022-12-19T13:57:13.211Z,4.2
2022-12-19T13:59:17.244Z,2.4
2022-12-19T14:01:22.043Z,3.3
2022-12-19T14:03:25.435Z,3.9
2022-12-19T14:06:15.153Z,3.3
2022-12-19T14:07:35.954Z,2.7
2022-12-19T14:11:32.141Z,3.6
2022-12-19T14:12:22.807Z,3.5
2022-12-19T14:13:59.122Z,2.5
2022-12-19T14:15:52.765Z,3.8
2022-12-19T14:17:56.407Z,1.4
2022-12-19T14:20:33.217Z,3.2
2022-12-19T14:24:11.507Z,3.3
2022-12-19T14:28:19.206Z,5.2
2022-12-19T14:28:29.474Z,4.3
2022-12-19T14:30:30.532Z,3.5
2022-12-19T14:33:43.819Z,3.7
2022-12-19T14:36:06.966Z,4.5
2022-12-19T14:36:37.122Z,3.5
2022-12-19T14:39:19.735Z,3.1
2022-12-19T14:43:58.539Z,2
2022-12-19T14:52:34.840Z,2.4
2022-12-19T14:54:10.032Z,1.5
2022-12-19T14:54:14.085Z,3
2022-12-19T14:56:46.777Z,2.4
2022-12-19T14:58:56.164Z,2
2022-12-19T15:01:08.434Z,2.2
2022-12-19T15:02:35.382Z,3.8
2022-12-19T15:04:52.946Z,4
2022-12-19T15:07:09.517Z,3.3
2022-12-19T15:10:57.398Z,2.2
2022-12-19T15:11:06.715Z,2.5
2022-12-19T15:15:02.530Z,2
2022-12-19T15:17:06.353Z,3.5
2022-12-19T15:19:10.356Z,2.3
2022-12-19T15:21:17.348Z,2.9
2022-12-19T15:23:22.701Z,3.1
2022-12-19T15:26:01.447Z,2.8
2022-12-19T15:27:29.181Z,2.3
2022-12-19T15:29:33.173Z,1.4
2022-12-19T15:31:37.275Z,2.6
2022-12-19T15:34:00.158Z,2.8
2022-12-19T15:37:52.182Z,2.5
2022-12-19T15:40:59.693Z,5.8
2022-12-19T15:43:03.693Z,7
2022-12-19T15:45:07.694Z,6.3
2022-12-19T15:47:11.728Z,7.2
2022-12-19T15:49:18.697Z,5.6
2022-12-19T15:51:22.686Z,5.2
2022-12-19T15:53:38.344Z,4.1
2022-12-19T15:55:30.708Z,4
2022-12-19T16:01:42.817Z,2.9
2022-12-19T16:03:50.062Z,2.6
2022-12-19T16:05:53.889Z,3.5
2022-12-19T16:07:57.765Z,3.3
2022-12-19T16:10:01.853Z,4.3
2022-12-19T16:14:09.820Z,2.2
2022-12-19T16:16:15.960Z,2.4
2022-12-19T16:18:20.822Z,2.3
2022-12-19T16:20:24.834Z,2.7
2022-12-19T16:26:36.886Z,3
2022-12-19T16:28:40.888Z,5.3
2022-12-19T16:30:44.906Z,3.4
2022-12-19T16:32:51.924Z,4.6
2022-12-19T16:34:55.956Z,4.1
2022-12-19T16:39:24.492Z,5.1
2022-12-19T16:41:28.526Z,5.7
2022-12-19T16:43:32.529Z,3.6
2022-12-19T16:45:39.529Z,9.7
2022-12-19T16:47:43.534Z,9.8
2022-12-19T16:51:51.533Z,6.2
2022-12-19T16:53:55.520Z,6.7
2022-12-19T16:55:59.507Z,7.3
2022-12-19T16:58:03.512Z,6.8
2022-12-19T17:00:10.519Z,4.9
2022-12-19T17:02:14.655Z,7.8
2022-12-19T17:04:18.506Z,5.4
2022-12-19T17:06:22.474Z,8.8
2022-12-19T17:08:26.484Z,5.8
2022-12-19T17:10:30.477Z,5.2
2022-12-19T17:12:34.466Z,5.6
2022-12-19T17:14:41.409Z,9.7
2022-12-19T17:16:45.540Z,6.6
2022-12-19T17:18:49.421Z,4.6
2022-12-19T17:20:53.377Z,7.9
2022-12-19T17:22:57.344Z,7.8
2022-12-19T17:25:01.317Z,10.6
2022-12-19T17:27:05.309Z,5.3
2022-12-19T17:29:12.296Z,5.9
2022-12-19T17:31:16.368Z,7.7
2022-12-19T17:33:20.240Z,7
2022-12-19T17:34:23.753Z,8.4
2022-12-19T17:36:31.171Z,6.7
2022-12-19T17:38:31.690Z,6.2
2022-12-19T17:40:35.657Z,6.8
2022-12-19T17:42:42.624Z,9.4
2022-12-19T17:44:46.626Z,7.3
2022-12-19T17:46:50.580Z,8.5
2022-12-19T17:48:54.565Z,8.2
2022-12-19T17:50:58.519Z,10.5
2022-12-19T17:53:02.506Z,9.6
2022-12-19T17:55:12.091Z,9.2
2022-12-19T17:57:13.464Z,9.4
2022-12-19T17:59:17.441Z,8.9
2022-12-19T18:01:21.634Z,9
2022-12-19T18:03:25.585Z,8.4
2022-12-19T18:20:00.215Z,8.2
2022-12-19T18:22:04.218Z,11.2
2022-12-19T18:24:08.168Z,7.8
2022-12-19T18:26:15.163Z,6.9
2022-12-19T18:28:19.144Z,5.9
2022-12-19T18:30:23.113Z,5.3
2022-12-19T18:31:26.699Z,5.8
2022-12-19T18:33:30.606Z,5.7
2022-12-19T18:35:34.583Z,7.7
2022-12-19T18:37:38.567Z,5.1
2022-12-19T18:39:45.582Z,5
2022-12-19T18:41:49.566Z,5.7
2022-12-19T18:43:53.537Z,9.4
2022-12-19T18:45:57.651Z,7.6
2022-12-19T18:48:01.562Z,3.5
2022-12-19T18:50:05.497Z,3.3
2022-12-19T18:58:24.459Z,4.5
2022-12-19T19:00:28.434Z,8.9
2022-12-19T19:02:32.633Z,6.7
2022-12-19T19:04:36.420Z,3.1
2022-12-19T19:06:46.721Z,4.9
2022-12-19T19:08:47.420Z,4.9
2022-12-19T19:10:51.397Z,2.6
2022-12-19T19:12:55.404Z,3
2022-12-19T19:17:03.447Z,3.1
2022-12-19T19:19:07.361Z,3.5
2022-12-19T19:21:11.347Z,3
2022-12-19T19:23:18.384Z,3.3
2022-12-19T19:25:22.373Z,3.4
2022-12-19T19:27:26.353Z,2.4
2022-12-19T19:30:33.931Z,2.5
2022-12-19T19:36:48.842Z,3.6
2022-12-19T19:40:56.862Z,1.6
2022-12-19T19:45:04.851Z,3.5
2022-12-19T19:47:08.870Z,2.2
2022-12-19T19:49:12.821Z,1.3
2022-12-19T19:53:23.867Z,1.7
2022-12-19T19:59:35.832Z,8.3
2022-12-19T20:01:39.972Z,13.5
2022-12-19T20:03:43.890Z,3.8
2022-12-19T20:14:06.803Z,3
2022-12-19T20:18:14.802Z,2.1
2022-12-19T20:22:25.834Z,2.7
2022-12-19T20:24:29.802Z,2
2022-12-19T20:26:54.360Z,2.5
2022-12-19T20:28:58.352Z,2.4
2022-12-19T20:31:02.392Z,3.2
2022-12-19T20:35:15.249Z,3.4
2022-12-19T20:41:26.969Z,5.6
2022-12-19T20:43:30.921Z,5.7
2022-12-19T20:45:34.949Z,4.4
2022-12-19T20:47:41.942Z,9.7
2022-12-19T20:49:45.957Z,24.6
2022-12-19T20:51:49.947Z,16.4
2022-12-19T20:53:53.991Z,9.6
2022-12-19T20:55:58.548Z,2.4
2022-12-19T20:58:01.987Z,2.6
2022-12-19T21:00:06.016Z,11.1
2022-12-19T21:02:13.112Z,6.4
2022-12-19T21:04:17.332Z,4.4
2022-12-19T21:06:21.050Z,2.1
2022-12-19T21:08:25.066Z,5.5
2022-12-19T21:10:29.080Z,3.8
2022-12-19T21:12:33.111Z,2.4
2022-12-19T21:14:37.102Z,5.2
2022-12-19T21:16:44.189Z,2.8
2022-12-19T21:18:48.161Z,3.1
2022-12-19T21:20:52.174Z,1.7
2022-12-19T21:21:55.707Z,2.8
2022-12-19T21:23:59.728Z,0.8
2022-12-19T21:26:03.740Z,0.7
2022-12-19T21:28:07.751Z,2.1
2022-12-19T21:30:14.801Z,1.7
2022-12-19T21:32:19.210Z,1.3
2022-12-19T21:34:22.816Z,1.9
2022-12-19T21:36:26.911Z,1.8
2022-12-19T21:38:30.867Z,1.7
2022-12-19T21:40:34.878Z,0.7
2022-12-19T21:42:38.884Z,0.8
2022-12-19T21:44:45.884Z,1.6
2022-12-19T21:46:50.029Z,0.8
2022-12-19T21:48:53.976Z,0.8
2022-12-19T21:50:57.956Z,0.7
2022-12-19T21:53:01.978Z,1.3
2022-12-19T21:55:05.969Z,1.2
2022-12-19T21:57:10.008Z,1.1
2022-12-19T21:59:17.223Z,1.7
2022-12-19T22:01:21.136Z,1.6
2022-12-19T22:03:25.199Z,0.8
2022-12-19T22:07:33.107Z,0.9
2022-12-19T22:09:37.149Z,1.1
2022-12-19T22:11:41.146Z,1.6
2022-12-19T22:15:52.279Z,0.4
2022-12-19T22:17:56.230Z,1.1
2022-12-19T22:18:59.748Z,1.8
2022-12-19T22:21:03.756Z,0.9
2022-12-19T22:23:12.869Z,1.5
2022-12-19T22:25:11.844Z,1
2022-12-19T22:27:18.878Z,2.1
2022-12-19T22:33:30.924Z,1.1
2022-12-19T22:37:39.157Z,1.2
2022-12-19T22:39:43.027Z,1.1
2022-12-19T22:41:50.079Z,0.9
2022-12-19T22:43:54.127Z,1.3
2022-12-19T22:45:58.202Z,2
2022-12-19T22:48:02.182Z,1
2022-12-19T22:50:06.213Z,0.9
2022-12-19T22:52:10.299Z,0.9
2022-12-19T22:54:14.289Z,1.5
2022-12-19T22:56:21.366Z,1.8
2022-12-19T22:58:25.339Z,0.9
2022-12-19T23:00:29.394Z,1
2022-12-19T23:02:33.586Z,2
2022-12-19T23:04:37.444Z,1.7
2022-12-19T23:06:41.485Z,0.9
2022-12-19T23:08:45.486Z,1.6
2022-12-19T23:10:52.543Z,1
2022-12-19T23:12:56.569Z,0.8
2022-12-19T23:15:00.592Z,1.8
2022-12-19T23:16:04.169Z,1
2022-12-19T23:18:08.118Z,0.8
2022-12-19T23:24:23.209Z,1.5
2022-12-19T23:34:43.302Z,0.7
2022-12-19T23:37:11.582Z,1.8
2022-12-19T23:38:54.328Z,1.8
2022-12-19T23:40:58.384Z,1.5
2022-12-19T23:47:10.443Z,1.6
2022-12-19T23:49:14.453Z,1.1
2022-12-19T23:51:18.476Z,1
2022-12-19T23:53:25.503Z,1.4
2022-12-19T23:57:33.503Z,0.6
2022-12-19T23:59:37.551Z,1.1
